Time;durP1;ratioP1;P1;durP2;ratioP2;P2;SDS_P1;SDS_P2;PMS_P1;PMS_P2;Temp;Humidity;BMP_temperature;BMP_pressure;BME280_temperature;BME280_humidity;BME280_pressure;Samples;Min_cycle;Max_cycle;Signal;HPM_P1;HPM_P2
2023/10/02 00:01:17;;;;;;;1.02;0.70;;;16.50;99.90;;;;;;5096973;28;20137;-74
2023/10/02 00:03:45;;;;;;;0.60;0.60;;;16.50;99.90;;;;;;5096565;28;20048;-74
2023/10/02 00:06:16;;;;;;;0.63;0.50;;;16.50;99.90;;;;;;5096556;28;20031;-75
2023/10/02 00:08:42;;;;;;;0.50;0.50;;;16.50;99.90;;;;;;5096484;28;20433;-74
2023/10/02 00:11:38;;;;;;;0.40;0.40;;;16.50;99.90;;;;;;5096742;28;20058;-74
2023/10/02 00:14:19;;;;;;;0.85;0.70;;;16.50;99.90;;;;;;5096560;28;20353;-74
2023/10/02 00:16:59;;;;;;;0.75;0.50;;;16.50;99.90;;;;;;5096232;28;20036;-74
2023/10/02 00:19:31;;;;;;;0.40;0.40;;;16.50;99.90;;;;;;5096337;28;20079;-74
2023/10/02 00:22:03;;;;;;;1.40;0.68;;;16.50;99.90;;;;;;5096176;28;20495;-74
2023/10/02 00:24:32;;;;;;;0.40;0.40;;;16.50;99.90;;;;;;5096451;28;20384;-74
2023/10/02 00:26:58;;;;;;;4.50;1.00;;;16.50;99.90;;;;;;5096179;28;20044;-74
2023/10/02 00:29:26;;;;;;;0.45;0.45;;;16.50;99.90;;;;;;5096009;28;20383;-74
2023/10/02 00:31:56;;;;;;;0.88;0.50;;;16.50;99.90;;;;;;5096024;28;20055;-74
2023/10/02 00:34:31;;;;;;;0.40;0.40;;;16.50;99.90;;;;;;5095898;28;20128;-74
2023/10/02 00:37:02;;;;;;;0.85;0.60;;;16.50;99.90;;;;;;5096158;28;20039;-74
2023/10/02 00:39:32;;;;;;;1.88;0.70;;;16.50;99.90;;;;;;5096014;28;20418;-74
2023/10/02 00:42:24;;;;;;;1.20;1.10;;;16.50;99.90;;;;;;5095756;28;20043;-75
2023/10/02 00:44:57;;;;;;;0.55;0.55;;;16.50;99.90;;;;;;5095351;28;20040;-74
2023/10/02 00:47:42;;;;;;;0.40;0.40;;;16.50;99.90;;;;;;5095709;28;20040;-75
2023/10/02 00:50:18;;;;;;;1.00;0.57;;;16.50;99.90;;;;;;5095498;28;20119;-74
2023/10/02 00:52:59;;;;;;;0.63;0.63;;;16.50;99.90;;;;;;5095601;28;20040;-74
2023/10/02 00:55:31;;;;;;;0.50;0.50;;;16.50;99.90;;;;;;5095484;28;20097;-74
2023/10/02 00:57:57;;;;;;;0.40;0.40;;;16.50;99.90;;;;;;5095597;28;20051;-74
2023/10/02 01:00:31;;;;;;;0.30;0.30;;;16.50;99.90;;;;;;5095422;28;20373;-74
2023/10/02 01:02:58;;;;;;;0.52;0.52;;;16.50;99.90;;;;;;5095454;28;20097;-74
2023/10/02 01:05:30;;;;;;;0.75;0.60;;;16.50;99.90;;;;;;5095872;28;20040;-74
2023/10/02 01:07:59;;;;;;;1.50;0.60;;;16.50;99.90;;;;;;5095631;28;20131;-75
2023/10/02 01:10:29;;;;;;;0.68;0.68;;;16.50;99.90;;;;;;5095225;28;20067;-74
2023/10/02 01:13:05;;;;;;;0.60;0.60;;;16.60;99.90;;;;;;5095190;28;20075;-74
2023/10/02 01:15:32;;;;;;;0.30;0.30;;;16.60;99.90;;;;;;5094191;28;20066;-74
2023/10/02 01:20:48;;;;;;;0.45;0.45;;;16.60;99.90;;;;;;5095272;28;20040;-74
2023/10/02 01:23:22;;;;;;;1.50;1.00;;;16.60;99.90;;;;;;5094713;28;20093;-74
2023/10/02 01:25:49;;;;;;;1.75;0.70;;;16.60;99.90;;;;;;5094670;28;20039;-74
2023/10/02 01:28:25;;;;;;;0.50;0.50;;;16.60;99.90;;;;;;5095010;28;20047;-74
2023/10/02 01:30:51;;;;;;;0.63;0.63;;;16.60;99.90;;;;;;5094915;28;20059;-74
2023/10/02 01:33:26;;;;;;;0.43;0.43;;;16.60;99.90;;;;;;5094795;28;20218;-74
2023/10/02 01:35:56;;;;;;;0.60;0.60;;;16.60;99.90;;;;;;5094915;28;20040;-74
2023/10/02 01:38:31;;;;;;;0.70;0.57;;;16.50;99.90;;;;;;5094706;28;20387;-74
2023/10/02 01:41:04;;;;;;;0.52;0.52;;;16.50;99.90;;;;;;5094711;28;20090;-75
2023/10/02 01:43:32;;;;;;;1.38;0.73;;;16.50;99.90;;;;;;5094637;28;20039;-74
2023/10/02 01:46:00;;;;;;;0.80;0.73;;;16.50;99.90;;;;;;5094549;28;20047;-74
2023/10/02 01:48:40;;;;;;;0.50;0.50;;;16.40;99.90;;;;;;5093473;28;20409;-74
2023/10/02 01:51:20;;;;;;;0.40;0.40;;;16.40;99.90;;;;;;5094539;28;20048;-74
2023/10/02 01:53:53;;;;;;;1.30;0.70;;;16.30;99.90;;;;;;5094847;28;20471;-74
2023/10/02 01:56:19;;;;;;;0.98;0.88;;;16.30;99.90;;;;;;5094327;28;20036;-74
2023/10/02 01:58:48;;;;;;;;;;;16.30;99.90;;;;;;5094633;28;20126;-74
2023/10/02 02:01:15;;;;;;;0.88;0.68;;;16.30;99.90;;;;;;5094556;28;20003;-74
2023/10/02 02:03:43;;;;;;;0.50;0.50;;;16.20;99.90;;;;;;5094416;28;20506;-75
2023/10/02 02:06:09;;;;;;;0.30;0.30;;;16.20;99.90;;;;;;5094593;28;20040;-74
2023/10/02 02:08:43;;;;;;;0.63;0.63;;;16.20;99.90;;;;;;5094466;28;20173;-74
2023/10/02 02:11:16;;;;;;;1.00;0.50;;;16.20;99.90;;;;;;5094239;28;20040;-74
2023/10/02 02:13:53;;;;;;;0.40;0.40;;;16.20;99.90;;;;;;5094123;28;20044;-74
2023/10/02 02:16:22;;;;;;;0.55;0.43;;;16.20;99.90;;;;;;5094516;28;20082;-74
2023/10/02 02:18:50;;;;;;;0.70;0.70;;;16.10;99.90;;;;;;5094036;28;20399;-74
2023/10/02 02:21:18;;;;;;;0.30;0.30;;;16.10;99.90;;;;;;5094006;28;20039;-74
2023/10/02 02:23:45;;;;;;;0.60;0.60;;;16.20;99.90;;;;;;5093917;28;20119;-74
2023/10/02 02:26:20;;;;;;;;;;;16.10;99.90;;;;;;5094478;28;20036;-74
2023/10/02 02:28:47;;;;;;;0.47;0.43;;;16.20;99.90;;;;;;5094002;28;20354;-74
2023/10/02 02:31:31;;;;;;;0.40;0.40;;;16.10;99.90;;;;;;5093954;28;20382;-74
2023/10/02 02:34:02;;;;;;;0.73;0.65;;;16.10;99.90;;;;;;5093989;28;20433;-74
2023/10/02 02:36:34;;;;;;;0.47;0.47;;;16.10;99.90;;;;;;5093801;28;20119;-74
2023/10/02 02:39:15;;;;;;;0.82;0.77;;;16.20;99.90;;;;;;5093853;28;20171;-74
2023/10/02 02:44:56;;;;;;;0.40;0.40;;;16.10;99.90;;;;;;5079974;28;20052;-74
2023/10/02 02:47:21;;;;;;;0.30;0.30;;;16.10;99.90;;;;;;5093703;28;20051;-74
2023/10/02 02:49:52;;;;;;;0.40;0.40;;;16.10;99.90;;;;;;5093631;28;20040;-74
2023/10/02 02:52:20;;;;;;;0.45;0.45;;;16.10;99.90;;;;;;5093736;28;20075;-74
2023/10/02 02:54:58;;;;;;;0.30;0.30;;;16.10;99.90;;;;;;5093678;28;20043;-74
2023/10/02 02:57:29;;;;;;;0.40;0.40;;;16.10;99.90;;;;;;5093778;28;20429;-74
2023/10/02 03:02:54;;;;;;;1.88;0.47;;;16.00;99.90;;;;;;5093562;28;20126;-74
2023/10/02 03:05:22;;;;;;;0.30;0.30;;;16.10;99.90;;;;;;5093607;28;20040;-74
2023/10/02 03:07:54;;;;;;;0.45;0.45;;;16.00;99.90;;;;;;5096680;28;20048;-74
2023/10/02 03:10:23;;;;;;;4.13;1.15;;;15.90;99.90;;;;;;5097537;28;20050;-74
2023/10/02 03:12:50;;;;;;;1.00;0.60;;;16.00;99.90;;;;;;5097579;28;20361;-74
2023/10/02 03:15:45;;;;;;;0.40;0.40;;;15.90;99.90;;;;;;5097374;28;20040;-74
2023/10/02 03:18:30;;;;;;;0.40;0.40;;;15.90;99.90;;;;;;5097336;28;20052;-74
2023/10/02 03:20:59;;;;;;;0.80;0.80;;;15.90;99.90;;;;;;5097833;28;20087;-74
2023/10/02 03:23:30;;;;;;;2.40;0.70;;;15.80;99.90;;;;;;5097299;28;20047;-74
2023/10/02 03:25:56;;;;;;;0.98;0.80;;;15.80;99.90;;;;;;5097623;28;20040;-74
2023/10/02 03:28:27;;;;;;;0.50;0.50;;;15.80;99.90;;;;;;5097240;28;20043;-74
2023/10/02 03:30:54;;;;;;;0.30;0.30;;;15.80;99.90;;;;;;5097435;28;20040;-74
2023/10/02 03:33:22;;;;;;;1.05;0.77;;;15.80;99.90;;;;;;5097027;28;20043;-74
2023/10/02 03:36:08;;;;;;;0.70;0.70;;;15.80;99.90;;;;;;5097004;28;20082;-74
2023/10/02 03:38:41;;;;;;;0.70;0.70;;;15.70;99.90;;;;;;5097125;28;20051;-74
2023/10/02 03:41:07;;;;;;;0.55;0.55;;;15.70;99.90;;;;;;5097019;28;20032;-74
2023/10/02 03:43:42;;;;;;;1.15;0.60;;;15.70;99.90;;;;;;5096797;28;20040;-74
2023/10/02 03:46:13;;;;;;;0.47;0.47;;;15.70;99.90;;;;;;5097363;28;20044;-74
2023/10/02 03:48:39;;;;;;;2.05;0.75;;;15.70;99.90;;;;;;5097322;28;20380;-74
2023/10/02 03:51:06;;;;;;;0.33;0.33;;;15.60;99.90;;;;;;5096845;28;20109;-74
2023/10/02 03:53:34;;;;;;;;;;;15.60;99.90;;;;;;5097160;28;20331;-74
2023/10/02 03:56:36;;;;;;;0.90;0.88;;;15.60;99.90;;;;;;5096813;28;19977;-74
2023/10/02 03:58:47;;;;;;;0.50;0.50;;;15.50;99.90;;;;;;5096540;28;20051;-74
2023/10/02 04:01:15;;;;;;;0.65;0.65;;;15.50;99.90;;;;;;5096596;28;20044;-74
2023/10/02 04:03:56;;;;;;;0.70;0.70;;;15.50;99.90;;;;;;5096448;28;20044;-74
2023/10/02 04:06:33;;;;;;;0.70;0.70;;;15.50;99.90;;;;;;5096689;28;20111;-74
2023/10/02 04:09:12;;;;;;;1.17;0.45;;;15.50;99.90;;;;;;5094962;28;20052;-74
2023/10/02 04:11:38;;;;;;;3.22;0.95;;;15.40;99.90;;;;;;5096825;28;20062;-74
2023/10/02 04:14:17;;;;;;;0.90;0.85;;;15.40;99.90;;;;;;5096203;28;20044;-74
2023/10/02 04:16:51;;;;;;;0.38;0.38;;;15.40;99.90;;;;;;5096471;28;20036;-74
2023/10/02 04:19:24;;;;;;;0.65;0.65;;;15.40;99.90;;;;;;5095083;28;20059;-74
2023/10/02 04:21:53;;;;;;;2.00;1.13;;;15.30;99.90;;;;;;5096301;28;20135;-74
2023/10/02 04:24:23;;;;;;;1.30;1.20;;;15.30;99.90;;;;;;5096139;28;20040;-74
2023/10/02 04:26:54;;;;;;;1.05;1.00;;;15.20;99.90;;;;;;5096178;28;20046;-74
2023/10/02 04:32:11;;;;;;;0.60;0.60;;;15.30;99.90;;;;;;5095916;28;20040;-74
2023/10/02 04:34:36;;;;;;;0.63;0.63;;;15.20;99.90;;;;;;5096690;28;20047;-74
2023/10/02 04:37:19;;;;;;;0.43;0.43;;;15.20;99.90;;;;;;5095896;28;20370;-74
2023/10/02 04:45:20;;;;;;;1.40;0.73;;;15.20;99.90;;;;;;5066143;28;20048;-75
2023/10/02 04:47:48;;;;;;;0.80;0.70;;;15.20;99.90;;;;;;5095239;28;20091;-73
2023/10/02 04:55:42;;;;;;;0.47;0.47;;;15.30;99.90;;;;;;5095499;28;20040;-74
2023/10/02 05:01:15;;;;;;;1.15;1.05;;;15.30;99.90;;;;;;5095672;28;20429;-75
2023/10/02 05:03:27;;;;;;;0.40;0.40;;;15.20;99.90;;;;;;5095303;28;20372;-74
2023/10/02 05:05:53;;;;;;;1.17;0.85;;;15.30;99.90;;;;;;5095353;28;20387;-73
2023/10/02 05:09:12;;;;;;;0.63;0.47;;;15.30;99.90;;;;;;5095049;28;20055;-74
2023/10/02 05:11:45;;;;;;;0.63;0.52;;;15.30;99.90;;;;;;5094946;28;20044;-74
2023/10/02 05:14:13;;;;;;;1.48;1.25;;;15.20;99.90;;;;;;5095121;28;20036;-73
2023/10/02 05:16:42;;;;;;;1.52;1.20;;;15.20;99.90;;;;;;5094932;28;20044;-74
2023/10/02 05:19:09;;;;;;;1.38;0.57;;;15.20;99.90;;;;;;5094980;28;20456;-74
2023/10/02 05:21:50;;;;;;;1.15;0.77;;;15.20;99.90;;;;;;5095249;28;20036;-73
2023/10/02 05:24:19;;;;;;;0.68;0.60;;;15.20;99.90;;;;;;5094941;28;20036;-74
2023/10/02 05:26:46;;;;;;;0.60;0.60;;;15.10;99.90;;;;;;5094698;28;20131;-74
2023/10/02 05:29:17;;;;;;;0.85;0.85;;;15.10;99.90;;;;;;5094606;28;20123;-74
2023/10/02 05:31:47;;;;;;;0.40;0.40;;;15.00;99.90;;;;;;5095133;28;20428;-75
2023/10/02 05:34:23;;;;;;;1.00;1.00;;;15.10;99.90;;;;;;5094778;28;20101;-71
2023/10/02 05:37:11;;;;;;;0.88;0.70;;;15.00;99.90;;;;;;5094730;28;20036;-72
2023/10/02 05:39:41;;;;;;;1.30;1.17;;;15.00;99.90;;;;;;5094654;28;20502;-71
2023/10/02 05:42:15;;;;;;;1.48;0.88;;;15.00;99.90;;;;;;5094616;28;20067;-71
2023/10/02 05:44:44;;;;;;;1.00;0.95;;;15.00;99.90;;;;;;5094616;28;20040;-72
2023/10/02 05:47:15;;;;;;;1.50;1.30;;;15.00;99.90;;;;;;5094463;28;20086;-75
2023/10/02 05:49:47;;;;;;;0.95;0.90;;;15.00;99.90;;;;;;5094582;28;20040;-75
2023/10/02 05:52:20;;;;;;;1.08;1.02;;;15.00;99.90;;;;;;5095053;28;20345;-75
2023/10/02 05:54:47;;;;;;;0.52;0.52;;;14.90;99.90;;;;;;5094499;28;20082;-75
2023/10/02 05:57:14;;;;;;;1.88;1.33;;;15.00;99.90;;;;;;5094471;28;20455;-75
2023/10/02 05:59:54;;;;;;;0.75;0.60;;;15.00;99.90;;;;;;5094394;28;20044;-74
2023/10/02 06:02:22;;;;;;;1.02;0.93;;;15.00;99.90;;;;;;5094312;28;20032;-73
2023/10/02 06:04:52;;;;;;;0.73;0.73;;;15.00;99.90;;;;;;5094669;28;20048;-74
2023/10/02 06:07:43;;;;;;;1.45;1.00;;;15.00;99.90;;;;;;5094105;28;20483;-74
2023/10/02 06:10:18;;;;;;;0.80;0.80;;;15.00;99.90;;;;;;5094110;28;20442;-74
2023/10/02 06:12:46;;;;;;;0.73;0.55;;;15.10;99.90;;;;;;5094273;28;20126;-74
2023/10/02 06:17:58;;;;;;;0.90;0.90;;;15.10;99.90;;;;;;5093823;28;20046;-76
2023/10/02 06:20:24;;;;;;;0.52;0.52;;;15.10;99.90;;;;;;5094075;28;20376;-78
2023/10/02 06:23:03;;;;;;;0.53;0.53;;;15.10;99.90;;;;;;5094749;28;20136;-72
2023/10/02 06:25:29;;;;;;;2.63;1.25;;;15.20;99.90;;;;;;5094030;28;20277;-74
2023/10/02 06:28:14;;;;;;;0.90;0.90;;;15.20;99.90;;;;;;5093989;28;20075;-73
2023/10/02 06:30:40;;;;;;;0.68;0.68;;;15.30;99.90;;;;;;5093961;28;20460;-71
2023/10/02 06:33:08;;;;;;;0.73;0.73;;;15.30;99.90;;;;;;5093857;28;20128;-72
2023/10/02 06:35:33;;;;;;;0.60;0.60;;;15.30;99.90;;;;;;5093831;28;20048;-73
2023/10/02 06:38:15;;;;;;;1.27;0.37;;;15.40;99.90;;;;;;5093522;28;20063;-70
2023/10/02 06:40:55;;;;;;;0.50;0.50;;;15.50;99.90;;;;;;5093623;28;20040;-73
2023/10/02 06:43:32;;;;;;;1.33;1.05;;;15.50;99.90;;;;;;5093822;28;20047;-71
2023/10/02 06:46:13;;;;;;;0.82;0.82;;;15.50;99.90;;;;;;5093816;28;20119;-71
2023/10/02 06:48:41;;;;;;;2.28;1.42;;;15.60;99.90;;;;;;5093848;28;20043;-71
2023/10/02 06:51:07;;;;;;;0.77;0.73;;;15.70;99.90;;;;;;5093965;28;20036;-71
2023/10/02 06:53:33;;;;;;;0.65;0.50;;;15.70;99.90;;;;;;5093902;28;20039;-70
2023/10/02 06:56:04;;;;;;;0.73;0.55;;;15.70;99.90;;;;;;5093328;28;20472;-72
2023/10/02 06:58:31;;;;;;;0.70;0.55;;;15.80;99.90;;;;;;5093671;28;20055;-71
2023/10/02 07:01:01;;;;;;;0.73;0.73;;;15.90;99.90;;;;;;5093726;28;20062;-70
2023/10/02 07:03:27;;;;;;;1.13;0.90;;;16.00;99.90;;;;;;5093538;28;20478;-73
2023/10/02 07:05:53;;;;;;;0.47;0.47;;;16.10;99.90;;;;;;5093345;28;20127;-75
2023/10/02 07:08:21;;;;;;;0.67;0.67;;;16.20;99.90;;;;;;5093636;28;20135;-74
2023/10/02 07:10:48;;;;;;;0.88;0.80;;;16.20;99.90;;;;;;5093491;28;20106;-74
2023/10/02 07:13:23;;;;;;;0.40;0.40;;;16.30;99.90;;;;;;5093585;28;20036;-75
2023/10/02 07:15:59;;;;;;;0.57;0.55;;;16.30;99.90;;;;;;5093569;28;20418;-75
2023/10/02 07:18:37;;;;;;;0.60;0.60;;;16.40;99.90;;;;;;5093132;28;20076;-75
2023/10/02 07:21:09;;;;;;;0.65;0.60;;;16.50;99.90;;;;;;5093182;28;20036;-75
2023/10/02 07:23:38;;;;;;;0.70;0.70;;;16.50;99.90;;;;;;5093911;28;20353;-74
2023/10/02 07:26:04;;;;;;;0.52;0.52;;;16.60;99.90;;;;;;5093329;28;20131;-76
2023/10/02 07:28:31;;;;;;;0.93;0.80;;;16.60;99.90;;;;;;5093338;28;20375;-74
2023/10/02 07:30:57;;;;;;;;;;;16.70;99.90;;;;;;5093802;28;20158;-75
2023/10/02 07:33:23;;;;;;;2.88;1.00;;;16.70;99.90;;;;;;5093366;28;20020;-76
2023/10/02 07:35:55;;;;;;;1.10;0.90;;;16.80;99.90;;;;;;5093039;28;20032;-75
2023/10/02 07:38:30;;;;;;;0.90;0.75;;;16.80;99.90;;;;;;5092767;28;20379;-75
2023/10/02 07:41:06;;;;;;;0.65;0.60;;;16.80;99.90;;;;;;5093341;28;20075;-75
2023/10/02 07:43:32;;;;;;;0.73;0.70;;;16.90;99.90;;;;;;5093141;28;20460;-74
2023/10/02 07:46:02;;;;;;;0.73;0.63;;;16.90;99.90;;;;;;5093236;28;20218;-76
2023/10/02 07:48:33;;;;;;;0.98;0.60;;;17.00;99.90;;;;;;5093160;28;20043;-76
2023/10/02 07:51:00;;;;;;;1.00;0.90;;;17.10;99.90;;;;;;5093214;28;20102;-75
2023/10/02 07:53:39;;;;;;;0.63;0.63;;;17.10;99.90;;;;;;5095472;28;20040;-76
2023/10/02 07:56:12;;;;;;;0.95;0.85;;;17.30;99.90;;;;;;5096891;28;20043;-78
2023/10/02 07:58:54;;;;;;;0.60;0.55;;;17.40;99.90;;;;;;5096447;28;20046;-74
2023/10/02 08:01:23;;;;;;;2.67;0.68;;;17.40;99.90;;;;;;5096667;28;20089;-73
2023/10/02 08:03:49;;;;;;;0.52;0.52;;;17.50;99.90;;;;;;5096599;28;20048;-75
2023/10/02 08:06:36;;;;;;;0.65;0.60;;;17.50;99.90;;;;;;5095543;28;20452;-74
2023/10/02 08:11:52;;;;;;;0.80;0.80;;;17.50;99.90;;;;;;5096612;28;20079;-73
2023/10/02 08:14:34;;;;;;;0.60;0.60;;;17.60;99.90;;;;;;5096310;28;20051;-75
2023/10/02 08:17:06;;;;;;;1.15;1.00;;;17.60;99.90;;;;;;5096497;28;20036;-74
2023/10/02 08:19:31;;;;;;;0.50;0.50;;;17.70;99.90;;;;;;5096360;28;20191;-75
2023/10/02 08:21:57;;;;;;;0.93;0.80;;;17.80;99.90;;;;;;5096052;28;20131;-76
2023/10/02 08:24:23;;;;;;;0.67;0.67;;;17.80;99.90;;;;;;5096202;28;20042;-74
2023/10/02 08:26:50;;;;;;;0.83;0.77;;;17.80;99.90;;;;;;5096205;28;20044;-73
2023/10/02 08:29:18;;;;;;;0.82;0.82;;;17.90;99.90;;;;;;5096111;28;20054;-77
2023/10/02 08:31:48;;;;;;;0.95;0.65;;;17.90;99.90;;;;;;5096071;28;20036;-73
2023/10/02 08:34:24;;;;;;;1.40;0.95;;;18.00;99.90;;;;;;5095935;28;20055;-76
2023/10/02 08:37:07;;;;;;;1.15;1.05;;;18.00;99.90;;;;;;5096393;28;20036;-74
2023/10/02 08:39:40;;;;;;;0.93;0.70;;;18.10;99.90;;;;;;5095965;28;20048;-73
2023/10/02 08:42:09;;;;;;;0.52;0.50;;;18.10;99.90;;;;;;5095916;28;20046;-73
2023/10/02 08:44:40;;;;;;;0.95;0.90;;;18.20;99.90;;;;;;5095869;28;20375;-75
2023/10/02 08:47:07;;;;;;;1.25;0.98;;;18.30;99.90;;;;;;5096210;28;20345;-73
2023/10/02 08:49:34;;;;;;;2.05;1.05;;;18.30;99.90;;;;;;5095437;28;20495;-78
2023/10/02 08:52:03;;;;;;;1.63;0.95;;;18.40;99.90;;;;;;5095910;28;20046;-76
2023/10/02 08:54:31;;;;;;;0.70;0.70;;;18.60;99.90;;;;;;5095618;28;20040;-76
2023/10/02 08:57:08;;;;;;;1.20;1.10;;;18.60;99.90;;;;;;5095484;28;20423;-76
2023/10/02 08:59:40;;;;;;;;;;;18.80;99.90;;;;;;5095885;28;20036;-77
2023/10/02 09:02:16;;;;;;;0.65;0.65;;;18.90;99.90;;;;;;5095501;28;19969;-77
2023/10/02 09:05:06;;;;;;;1.30;1.17;;;18.90;99.90;;;;;;5094771;28;20143;-76
2023/10/02 09:10:26;;;;;;;2.28;1.38;;;19.00;99.90;;;;;;5095316;28;20062;-76
2023/10/02 09:13:14;;;;;;;0.98;0.70;;;19.10;99.90;;;;;;5095301;28;20040;-78
2023/10/02 09:15:48;;;;;;;1.95;1.35;;;19.20;99.90;;;;;;5095067;28;20045;-79
2023/10/02 09:18:34;;;;;;;0.50;0.50;;;19.20;99.90;;;;;;5095667;28;20124;-78
2023/10/02 09:21:15;;;;;;;0.70;0.70;;;19.30;99.90;;;;;;5094818;28;20548;-74
2023/10/02 09:23:52;;;;;;;0.75;0.75;;;19.40;99.90;;;;;;5095010;28;20492;-75
2023/10/02 09:26:26;;;;;;;2.35;1.67;;;19.50;99.90;;;;;;5094984;28;20040;-75
2023/10/02 09:28:59;;;;;;;1.02;0.50;;;19.50;99.90;;;;;;5094834;28;20048;-74
2023/10/02 09:31:30;;;;;;;0.95;0.70;;;19.60;99.90;;;;;;5094913;28;20043;-74
2023/10/02 09:33:56;;;;;;;0.88;0.88;;;19.60;99.90;;;;;;5094815;28;20035;-84
2023/10/02 09:36:36;;;;;;;2.05;1.35;;;19.70;99.90;;;;;;5094707;28;20043;-76
2023/10/02 09:42:07;;;;;;;1.73;1.33;;;19.70;99.90;;;;;;5094700;28;20051;-74
2023/10/02 09:44:40;;;;;;;0.82;0.73;;;19.80;99.90;;;;;;5094798;28;20040;-76
2023/10/02 09:47:09;;;;;;;1.02;0.65;;;19.90;99.90;;;;;;5094374;28;20028;-77
2023/10/02 09:49:44;;;;;;;1.70;0.63;;;20.00;99.90;;;;;;5094815;28;20044;-75
2023/10/02 09:52:16;;;;;;;0.93;0.85;;;20.10;99.90;;;;;;5094631;28;20044;-73
2023/10/02 09:54:50;;;;;;;0.95;0.85;;;20.20;99.90;;;;;;5094528;28;20040;-76
2023/10/02 09:57:25;;;;;;;1.15;1.05;;;20.20;99.90;;;;;;5094683;28;20062;-75
2023/10/02 09:59:54;;;;;;;0.63;0.63;;;20.30;99.90;;;;;;5094485;28;20044;-77
2023/10/02 10:05:02;;;;;;;1.15;1.00;;;20.40;99.90;;;;;;5094279;28;20138;-75
2023/10/02 10:07:46;;;;;;;1.10;0.95;;;20.50;99.90;;;;;;5093924;28;20051;-75
2023/10/02 10:11:10;;;;;;;0.52;0.52;;;20.60;99.90;;;;;;5094468;28;20410;-76
2023/10/02 10:13:37;;;;;;;0.68;0.68;;;20.70;99.90;;;;;;5094550;28;20048;-73
2023/10/02 10:16:18;;;;;;;;;;;20.70;99.90;;;;;;5093656;28;20036;-75
2023/10/02 10:24:56;;;;;;;0.90;0.90;;;20.90;99.90;;;;;;5094275;28;20048;-75
2023/10/02 10:27:40;;;;;;;1.50;1.00;;;20.90;99.90;;;;;;5093980;28;20130;-76
2023/10/02 10:33:20;;;;;;;1.60;1.50;;;20.80;99.90;;;;;;5080645;28;20079;-77
2023/10/02 10:35:51;;;;;;;0.50;0.47;;;20.90;99.90;;;;;;5093862;28;20040;-76
2023/10/02 10:38:26;;;;;;;1.15;0.75;;;21.00;99.90;;;;;;5094452;28;20037;-77
2023/10/02 10:41:06;;;;;;;3.05;1.15;;;21.00;99.90;;;;;;5094284;28;20497;-75
2023/10/02 10:46:17;;;;;;;0.80;0.63;;;21.00;99.90;;;;;;5095968;28;20131;-76
2023/10/02 10:48:48;;;;;;;1.20;1.10;;;21.10;99.90;;;;;;5096063;28;20087;-74
2023/10/02 10:51:20;;;;;;;0.98;0.88;;;21.30;99.90;;;;;;5093827;28;20075;-76
2023/10/02 10:53:52;;;;;;;3.13;1.25;;;21.30;99.90;;;;;;5093796;28;20058;-76
2023/10/02 10:56:22;;;;;;;0.55;0.50;;;21.40;99.90;;;;;;5093629;28;20066;-76
2023/10/02 10:58:53;;;;;;;0.73;0.70;;;21.40;99.90;;;;;;5093662;28;20093;-74
2023/10/02 11:01:22;;;;;;;2.22;1.58;;;21.40;99.90;;;;;;5093936;28;20051;-73
2023/10/02 11:03:59;;;;;;;1.73;1.17;;;21.40;99.90;;;;;;5093645;28;20044;-76
2023/10/02 11:06:24;;;;;;;1.67;1.30;;;21.40;99.90;;;;;;5093565;28;20092;-74
2023/10/02 11:09:11;;;;;;;2.20;2.00;;;21.30;99.90;;;;;;5094056;28;20452;-75
2023/10/02 11:11:49;;;;;;;0.52;0.52;;;21.30;99.90;;;;;;5093760;28;20278;-75
2023/10/02 11:14:20;;;;;;;1.98;0.60;;;21.30;99.90;;;;;;5093598;28;20043;-74
2023/10/02 11:16:51;;;;;;;1.00;0.93;;;21.30;99.90;;;;;;5094048;28;20071;-74
2023/10/02 11:22:16;;;;;;;0.75;0.70;;;21.40;99.90;;;;;;5093916;28;20052;-74
2023/10/02 11:24:53;;;;;;;0.43;0.43;;;21.60;99.90;;;;;;5093572;28;20094;-73
2023/10/02 11:27:23;;;;;;;1.02;0.85;;;21.80;99.90;;;;;;5094151;28;20043;-75
2023/10/02 11:30:02;;;;;;;2.67;0.65;;;21.90;99.90;;;;;;5097179;28;20086;-74
2023/10/02 11:33:02;;;;;;;0.52;0.52;;;21.90;99.90;;;;;;5097262;28;20036;-75
2023/10/02 11:35:28;;;;;;;2.70;1.52;;;22.00;99.90;;;;;;5097434;28;20051;-73
2023/10/02 11:37:56;;;;;;;1.20;1.10;;;22.00;99.90;;;;;;5097118;28;20032;-74
2023/10/02 11:40:25;;;;;;;0.65;0.65;;;22.00;99.90;;;;;;5096992;28;20081;-74
2023/10/02 11:42:53;;;;;;;0.60;0.60;;;22.10;99.90;;;;;;5097039;28;20576;-73
2023/10/02 11:45:19;;;;;;;0.57;0.57;;;22.00;99.90;;;;;;5096999;28;20374;-76
2023/10/02 11:47:45;;;;;;;0.50;0.50;;;22.00;99.90;;;;;;5097022;28;20040;-75
2023/10/02 11:50:15;;;;;;;0.57;0.57;;;22.10;99.90;;;;;;5096898;28;20046;-75
2023/10/02 11:52:41;;;;;;;1.08;0.80;;;22.00;99.90;;;;;;5096942;28;20036;-75
2023/10/02 11:55:07;;;;;;;0.30;0.30;;;22.00;99.90;;;;;;5096809;28;20096;-74
2023/10/02 11:57:33;;;;;;;2.40;1.00;;;22.10;99.90;;;;;;5096675;28;20063;-76
2023/10/02 12:00:08;;;;;;;0.98;0.50;;;22.10;99.90;;;;;;5096733;28;20036;-75
2023/10/02 12:02:34;;;;;;;0.50;0.50;;;22.20;99.90;;;;;;5094465;28;20476;-75
2023/10/02 12:05:00;;;;;;;0.75;0.75;;;22.30;99.90;;;;;;5096081;28;20162;-76
2023/10/02 12:07:26;;;;;;;0.60;0.60;;;22.20;99.90;;;;;;5096458;28;20056;-75
2023/10/02 12:09:53;;;;;;;0.73;0.73;;;22.30;99.90;;;;;;5095045;28;20294;-77
2023/10/02 12:12:19;;;;;;;0.47;0.47;;;22.20;99.90;;;;;;5095381;28;20467;-75
2023/10/02 12:14:45;;;;;;;0.50;0.40;;;22.30;99.90;;;;;;5096926;28;20395;-75
2023/10/02 12:17:11;;;;;;;0.50;0.50;;;22.30;99.90;;;;;;5096241;28;20036;-76
2023/10/02 12:19:39;;;;;;;0.98;0.80;;;22.40;99.90;;;;;;5096387;28;20040;-75
2023/10/02 12:22:06;;;;;;;0.40;0.40;;;22.50;99.90;;;;;;5096275;28;20071;-75
2023/10/02 12:24:35;;;;;;;0.65;0.65;;;22.60;99.90;;;;;;5096310;28;20040;-75
2023/10/02 12:27:01;;;;;;;0.68;0.65;;;22.60;99.90;;;;;;5096147;28;20036;-75
2023/10/02 12:29:29;;;;;;;0.47;0.47;;;22.60;99.90;;;;;;5096145;28;20055;-75
2023/10/02 12:31:59;;;;;;;0.43;0.43;;;22.70;99.90;;;;;;5096163;28;20055;-75
2023/10/02 12:34:25;;;;;;;1.27;1.02;;;22.80;99.90;;;;;;5096109;28;20036;-75
2023/10/02 12:36:52;;;;;;;1.67;1.57;;;22.80;99.90;;;;;;5095849;28;20043;-75
2023/10/02 12:39:17;;;;;;;0.30;0.30;;;22.80;99.90;;;;;;5111244;28;20121;-75
2023/10/02 12:41:44;;;;;;;1.37;0.80;;;22.90;99.90;;;;;;5096255;28;20096;-75
2023/10/02 12:44:10;;;;;;;3.03;1.17;;;22.90;99.90;;;;;;5095245;28;20464;-78
2023/10/02 12:46:44;;;;;;;1.17;0.60;;;22.90;99.90;;;;;;5095784;28;20043;-76
2023/10/02 12:49:13;;;;;;;0.50;0.50;;;22.90;99.90;;;;;;5095968;28;20406;-76
2023/10/02 12:51:41;;;;;;;2.08;0.82;;;22.90;99.90;;;;;;5095379;28;20524;-75
2023/10/02 12:54:07;;;;;;;0.95;0.93;;;22.90;99.90;;;;;;5095638;28;20036;-75
2023/10/02 12:56:33;;;;;;;1.00;0.95;;;23.00;99.90;;;;;;5095653;28;20072;-77
2023/10/02 12:58:59;;;;;;;3.55;1.27;;;23.00;99.90;;;;;;5095601;28;20049;-75
2023/10/02 13:01:29;;;;;;;0.87;0.60;;;23.00;99.90;;;;;;5095473;28;20456;-78
2023/10/02 13:03:56;;;;;;;0.55;0.55;;;23.10;99.90;;;;;;5095484;28;20096;-80
2023/10/02 13:06:24;;;;;;;0.50;0.50;;;23.00;99.90;;;;;;5095362;28;20032;-79
2023/10/02 13:08:50;;;;;;;1.25;1.08;;;23.00;99.90;;;;;;5095085;28;20490;-79
2023/10/02 13:11:19;;;;;;;0.40;0.40;;;23.00;99.90;;;;;;5095613;28;20075;-79
2023/10/02 13:13:46;;;;;;;0.50;0.50;;;23.00;99.90;;;;;;5095821;28;20036;-78
2023/10/02 13:16:16;;;;;;;0.50;0.50;;;23.00;99.90;;;;;;5095201;28;20039;-79
2023/10/02 13:18:45;;;;;;;0.50;0.50;;;22.90;99.90;;;;;;5095043;28;20047;-76
2023/10/02 13:21:14;;;;;;;0.30;0.30;;;22.90;99.90;;;;;;5095151;28;20047;-78
2023/10/02 13:23:40;;;;;;;0.35;0.35;;;22.80;99.90;;;;;;5095021;28;20047;-80
2023/10/02 13:26:08;;;;;;;2.30;0.85;;;22.80;99.90;;;;;;5095045;28;20128;-79
2023/10/02 13:28:34;;;;;;;1.05;0.45;;;22.80;99.90;;;;;;5094834;28;20055;-79
2023/10/02 13:31:12;;;;;;;0.70;0.70;;;22.70;99.90;;;;;;5094997;28;20119;-78
2023/10/02 13:33:40;;;;;;;0.50;0.50;;;22.60;99.90;;;;;;5095231;28;20046;-79
2023/10/02 13:36:07;;;;;;;1.27;1.13;;;22.60;99.90;;;;;;5094959;28;20093;-78
2023/10/02 13:38:35;;;;;;;0.70;0.70;;;22.60;99.90;;;;;;5093646;28;20090;-80
2023/10/02 13:41:11;;;;;;;0.77;0.77;;;22.70;99.90;;;;;;5094809;28;20062;-80
2023/10/02 13:43:41;;;;;;;1.97;1.23;;;22.70;99.90;;;;;;5094763;28;20062;-80
2023/10/02 13:46:11;;;;;;;0.85;0.85;;;22.70;99.90;;;;;;5094433;28;20769;-79
2023/10/02 13:48:41;;;;;;;0.68;0.68;;;22.70;99.90;;;;;;5094609;28;20360;-80
2023/10/02 13:51:07;;;;;;;0.77;0.70;;;22.60;99.90;;;;;;5094443;28;20032;-80
2023/10/02 13:53:34;;;;;;;0.65;0.65;;;22.70;99.90;;;;;;5094633;28;20040;-79
2023/10/02 13:56:09;;;;;;;0.60;0.60;;;22.60;99.90;;;;;;5094451;28;20123;-80
2023/10/02 13:58:39;;;;;;;0.20;0.20;;;22.60;99.90;;;;;;5093576;28;20044;-79
2023/10/02 14:01:06;;;;;;;0.57;0.52;;;22.60;99.90;;;;;;5094244;28;20085;-79
2023/10/02 14:03:33;;;;;;;0.35;0.35;;;22.60;99.90;;;;;;5094427;28;20040;-78
2023/10/02 14:06:00;;;;;;;0.30;0.30;;;22.60;99.90;;;;;;5094410;28;20044;-80